Terminal Aerodrome Forecast
Issued by NWS Wilmington, NC

Home | Current Version | Previous Version | Text Only | Print | Product List | Glossary On
Versions: 1 2 3 4 5 6 7 8 9 10 11 12 13 14 15 16 17
614
FTUS42 KILM 201720
TAFILM
TAF
KILM 201720Z 2018/2118 21007KT P6SM SCT100
     FM210300 26003KT P6SM OVC050
     FM210600 31004KT P6SM OVC014
     FM210900 VRB03KT 3/4SM BR OVC004
     FM211500 10004KT 4SM -RA BR OVC007=

USA.gov is the U.S. government's official web portal to all federal, state and local government web resources and services.